Time;durP1;ratioP1;P1;durP2;ratioP2;P2;SDS_P1;SDS_P2;PMS_P1;PMS_P2;Temp;Humidity;BMP_temperature;BMP_pressure;BME280_temperature;BME280_humidity;BME280_pressure;Samples;Min_cycle;Max_cycle;Signal;HPM_P1;HPM_P2
2022/09/17 00:00:55;;;;;;;;;;;;;;;9.72;72.06;97452.03;5060846;28;19929;-62
2022/09/17 00:03:23;;;;;;;;;;;;;;;9.73;71.73;97450.91;5051278;28;19931;-62
2022/09/17 00:05:58;;;;;;;;;;;;;;;9.71;71.86;97450.44;5051244;28;19924;-62
2022/09/17 00:08:28;;;;;;;;;;;;;;;9.69;71.69;97456.19;5065274;28;19968;-62
2022/09/17 00:10:56;;;;;;;;;;;;;;;9.71;71.77;97450.44;5055128;28;19933;-62
2022/09/17 00:13:24;;;;;;;;;;;;;;;9.65;71.73;97457.13;5050927;28;19928;-62
2022/09/17 00:15:53;;;;;;;;;;;;;;;9.66;71.59;97447.88;5068786;28;19959;-61
2022/09/17 00:18:20;;;;;;;;;;;;;;;9.60;71.71;97449.94;5059182;28;19933;-63
2022/09/17 00:20:48;;;;;;;;;;;;;;;9.58;71.65;97440.50;5059717;28;19928;-61
2022/09/17 00:23:22;;;;;;;;;;;;;;;9.62;71.47;97455.03;5048640;28;19924;-62
2022/09/17 00:25:50;;;;;;;;;;;;;;;9.55;71.65;97444.66;5065454;28;19939;-62
2022/09/17 00:28:18;;;;;;;;;;;;;;;9.52;72.06;97447.19;5065454;28;20268;-62
2022/09/17 00:30:46;;;;;;;;;;;;;;;9.57;72.05;97438.91;5066561;28;20456;-62
2022/09/17 00:33:16;;;;;;;;;;;;;;;9.50;71.86;97446.72;5050290;28;19925;-62
2022/09/17 00:35:44;;;;;;;;;;;;;;;9.44;72.04;97444.16;5035002;28;19932;-62
2022/09/17 00:38:14;;;;;;;;;;;;;;;9.37;72.21;97441.09;5050180;28;19959;-62
2022/09/17 00:40:54;;;;;;;;;;;;;;;9.44;72.02;97438.75;5051801;28;20305;-62
2022/09/17 00:43:36;;;;;;;;;;;;;;;9.43;72.09;97437.16;5052178;28;20392;-63
2022/09/17 00:46:04;;;;;;;;;;;;;;;9.38;72.32;97440.00;5061326;28;20419;-62
2022/09/17 00:48:36;;;;;;;;;;;;;;;9.36;72.36;97453.06;5063792;28;19928;-62
2022/09/17 00:51:04;;;;;;;;;;;;;;;9.38;72.40;97456.28;5039282;28;19929;-63
2022/09/17 00:53:31;;;;;;;;;;;;;;;9.37;72.37;97451.94;5052610;28;19928;-62
2022/09/17 00:56:02;;;;;;;;;;;;;;;9.34;72.71;97449.88;5064565;28;19967;-63
2022/09/17 00:58:30;;;;;;;;;;;;;;;9.30;72.84;97442.69;5044383;28;19956;-62
2022/09/17 01:00:58;;;;;;;;;;;;;;;9.34;72.41;97449.88;5045579;28;19928;-63
2022/09/17 01:03:29;;;;;;;;;;;;;;;9.25;72.77;97462.59;5048908;28;19928;-62
2022/09/17 01:06:01;;;;;;;;;;;;;;;9.32;72.72;97459.41;5049055;28;19928;-62
2022/09/17 01:08:30;;;;;;;;;;;;;;;9.31;72.15;97446.97;5060051;28;19929;-61
2022/09/17 01:11:03;;;;;;;;;;;;;;;9.28;72.66;97461.19;5062991;28;20335;-62
2022/09/17 01:13:34;;;;;;;;;;;;;;;9.25;72.46;97451.75;5068722;28;19925;-62
2022/09/17 01:16:08;;;;;;;;;;;;;;;9.29;72.19;97468.97;5068654;28;19928;-62
2022/09/17 01:18:42;;;;;;;;;;;;;;;9.25;72.51;97465.28;5050781;28;20297;-62
2022/09/17 01:21:27;;;;;;;;;;;;;;;9.23;72.66;97467.53;5023883;28;20023;-61
2022/09/17 01:24:21;;;;;;;;;;;;;;;9.21;72.68;97474.38;5046358;28;20673;-62
2022/09/17 01:27:08;;;;;;;;;;;;;;;9.21;72.54;97475.16;5046009;28;19992;-62
2022/09/17 01:29:42;;;;;;;;;;;;;;;9.17;72.64;97475.00;5062722;28;19989;-62
2022/09/17 01:32:15;;;;;;;;;;;;;;;9.19;72.61;97477.41;5060121;28;19929;-61
2022/09/17 01:34:45;;;;;;;;;;;;;;;9.19;72.53;97478.19;5070635;28;19932;-62
2022/09/17 01:37:14;;;;;;;;;;;;;;;9.24;72.15;97477.25;5067008;28;20377;-62
2022/09/17 01:39:44;;;;;;;;;;;;;;;9.20;72.34;97468.16;5065361;28;20118;-61
2022/09/17 01:42:15;;;;;;;;;;;;;;;9.20;72.54;97473.56;5060463;28;19932;-62
2022/09/17 01:44:45;;;;;;;;;;;;;;;9.18;72.51;97465.75;5068555;28;19924;-62
2022/09/17 01:47:16;;;;;;;;;;;;;;;9.18;72.73;97478.50;5048622;28;19970;-62
2022/09/17 01:49:48;;;;;;;;;;;;;;;9.27;72.03;97479.34;5056887;28;19929;-61
2022/09/17 01:52:18;;;;;;;;;;;;;;;9.16;72.50;97473.41;5062612;28;20360;-62
2022/09/17 01:54:48;;;;;;;;;;;;;;;9.19;72.48;97477.41;5053413;28;19928;-62
2022/09/17 02:03:05;;;;;;;;;;;;;;;9.11;73.14;97487.09;5053795;28;19928;-62
2022/09/17 02:08:35;;;;;;;;;;;;;;;9.04;72.94;97489.44;5043095;28;20222;-62
2022/09/17 02:11:16;;;;;;;;;;;;;;;9.13;72.86;97484.88;5027170;28;19925;-62
2022/09/17 02:13:59;;;;;;;;;;;;;;;9.04;73.39;97483.22;5057511;28;19925;-63
2022/09/17 02:16:29;;;;;;;;;;;;;;;9.06;72.92;97489.16;5024704;28;19933;-62
2022/09/17 02:19:18;;;;;;;;;;;;;;;9.05;73.21;97487.53;5041216;28;19979;-62
2022/09/17 02:22:14;;;;;;;;;;;;;;;9.07;73.19;97490.75;5048862;28;20148;-63
2022/09/17 02:25:05;;;;;;;;;;;;;;;9.08;73.14;97490.41;5038683;28;20081;-62
2022/09/17 02:27:56;;;;;;;;;;;;;;;9.11;73.04;97489.81;5049442;28;19975;-61
2022/09/17 02:30:44;;;;;;;;;;;;;;;9.13;73.17;97484.06;5043418;28;19940;-62
2022/09/17 02:33:32;;;;;;;;;;;;;;;9.12;73.19;97487.91;5038248;28;20141;-62
2022/09/17 02:36:22;;;;;;;;;;;;;;;9.12;73.21;97477.84;5044934;28;19933;-62
2022/09/17 02:39:12;;;;;;;;;;;;;;;9.12;72.78;97477.06;5050306;28;19929;-62
2022/09/17 02:42:06;;;;;;;;;;;;;;;9.17;72.89;97490.47;5040824;28;20015;-62
2022/09/17 02:44:58;;;;;;;;;;;;;;;9.18;73.21;97478.50;5037319;28;19933;-62
2022/09/17 02:47:58;;;;;;;;;;;;;;;9.26;72.30;97477.72;5046958;28;20333;-62
2022/09/17 02:50:56;;;;;;;;;;;;;;;9.21;72.31;97474.38;5048727;28;20015;-62
2022/09/17 02:53:47;;;;;;;;;;;;;;;9.19;72.60;97477.41;5037264;28;19929;-62
2022/09/17 02:56:43;;;;;;;;;;;;;;;9.17;72.53;97472.28;5040104;28;19937;-62
2022/09/17 02:59:31;;;;;;;;;;;;;;;9.17;72.58;97468.78;5045947;28;20354;-62
2022/09/17 03:02:06;;;;;;;;;;;;;;;9.17;72.58;97463.38;5041713;28;19925;-62
2022/09/17 03:04:33;;;;;;;;;;;;;;;9.22;72.21;97468.66;5048197;28;19948;-62
2022/09/17 03:07:04;;;;;;;;;;;;;;;9.22;72.28;97462.44;5032434;28;20297;-62
2022/09/17 03:09:34;;;;;;;;;;;;;;;9.22;72.37;97455.09;5066245;28;19959;-62
2022/09/17 03:12:02;;;;;;;;;;;;;;;9.22;72.13;97449.69;5050279;28;20214;-62
2022/09/17 03:14:30;;;;;;;;;;;;;;;9.24;71.94;97454.78;5063431;28;20027;-62
2022/09/17 03:16:58;;;;;;;;;;;;;;;9.23;71.83;97456.69;5064902;28;20275;-63
2022/09/17 03:19:26;;;;;;;;;;;;;;;9.22;71.86;97449.69;5059016;28;19976;-62
2022/09/17 03:21:56;;;;;;;;;;;;;;;9.35;71.46;97453.38;5056688;28;19924;-62
2022/09/17 03:24:51;;;;;;;;;;;;;;;9.27;71.55;97446.81;5064237;28;19982;-63
2022/09/17 03:27:21;;;;;;;;;;;;;;;9.26;70.91;97439.78;5055366;28;20396;-62
2022/09/17 03:29:48;;;;;;;;;;;;;;;9.26;70.95;97444.41;5069233;28;19947;-62
2022/09/17 03:32:16;;;;;;;;;;;;;;;9.24;71.42;97442.03;5061782;28;19928;-62
2022/09/17 03:34:50;;;;;;;;;;;;;;;9.30;71.00;97446.19;5047850;28;19940;-62
2022/09/17 03:37:40;;;;;;;;;;;;;;;9.27;70.37;97440.56;5068933;28;19924;-62
2022/09/17 03:40:29;;;;;;;;;;;;;;;9.30;70.51;97446.19;5062936;28;19929;-62
2022/09/17 03:43:24;;;;;;;;;;;;;;;9.28;70.85;97443.00;5063026;28;20433;-62
2022/09/17 03:46:12;;;;;;;;;;;;;;;9.28;70.67;97443.00;5043084;28;19932;-63
2022/09/17 03:49:02;;;;;;;;;;;;;;;9.29;70.66;97433.75;5050777;28;19968;-62
2022/09/17 03:52:15;;;;;;;;;;;;;;;9.32;70.51;97435.84;5060358;28;22944;-62
2022/09/17 03:55:03;;;;;;;;;;;;;;;9.43;70.09;97445.28;5064459;28;20392;-62
2022/09/17 03:57:52;;;;;;;;;;;;;;;9.30;70.26;97439.97;5049561;28;20385;-62
2022/09/17 04:00:41;;;;;;;;;;;;;;;9.31;70.34;97445.06;5062686;28;20305;-62
2022/09/17 04:03:31;;;;;;;;;;;;;;;9.26;70.48;97439.78;5047014;28;19959;-62
2022/09/17 04:06:19;;;;;;;;;;;;;;;9.28;70.63;97444.91;5069256;28;20368;-63
2022/09/17 04:09:10;;;;;;;;;;;;;;;9.27;70.52;97443.28;5057297;28;19944;-62
2022/09/17 04:11:58;;;;;;;;;;;;;;;9.25;70.96;97438.19;5061563;28;20382;-62
2022/09/17 04:14:47;;;;;;;;;;;;;;;9.29;70.91;97433.75;5059691;28;19925;-62
2022/09/17 04:17:35;;;;;;;;;;;;;;;9.28;70.71;97437.56;5048259;28;20016;-61
2022/09/17 04:20:22;;;;;;;;;;;;;;;9.28;70.69;97436.78;5048859;28;20542;-62
2022/09/17 04:23:10;;;;;;;;;;;;;;;9.26;70.86;97439.78;5047049;28;19925;-62
2022/09/17 04:25:58;;;;;;;;;;;;;;;9.35;70.51;97434.41;5044806;28;19925;-62
2022/09/17 04:28:47;;;;;;;;;;;;;;;9.31;70.61;97433.44;5046784;28;19931;-61
2022/09/17 04:31:39;;;;;;;;;;;;;;;9.28;70.94;97425.94;5047002;28;20019;-62
2022/09/17 04:34:30;;;;;;;;;;;;;;;9.27;70.93;97418.91;5043823;28;19948;-62
2022/09/17 04:37:18;;;;;;;;;;;;;;;9.25;70.78;97430.06;5037467;28;19924;-63
2022/09/17 04:40:07;;;;;;;;;;;;;;;9.24;71.19;97425.75;5043266;28;19976;-61
2022/09/17 04:42:55;;;;;;;;;;;;;;;9.25;71.13;97419.22;5046102;28;19929;-62
2022/09/17 04:45:45;;;;;;;;;;;;;;;9.23;71.26;97429.59;5047358;28;19936;-61
2022/09/17 04:48:34;;;;;;;;;;;;;;;9.22;71.19;97419.88;5047591;28;19973;-69
2022/09/17 04:51:22;;;;;;;;;;;;;;;9.18;71.01;97429.72;5047831;28;19939;-68
2022/09/17 04:54:10;;;;;;;;;;;;;;;9.14;71.50;97421.41;5046994;28;19936;-65
2022/09/17 04:56:58;;;;;;;;;;;;;;;9.14;71.80;97426.03;5045111;28;19939;-66
2022/09/17 04:59:46;;;;;;;;;;;;;;;9.16;71.78;97423.81;5044925;28;19935;-63
2022/09/17 05:02:37;;;;;;;;;;;;;;;9.18;71.28;97437.84;5045545;28;20312;-67
2022/09/17 05:05:26;;;;;;;;;;;;;;;9.13;71.54;97432.56;5047031;28;20014;-69
2022/09/17 05:08:15;;;;;;;;;;;;;;;9.13;71.77;97438.00;5050262;28;19929;-67
2022/09/17 05:11:05;;;;;;;;;;;;;;;9.11;71.91;97446.44;5049356;28;19935;-69
2022/09/17 05:13:52;;;;;;;;;;;;;;;9.12;71.90;97452.66;5043168;28;19931;-69
2022/09/17 05:16:40;;;;;;;;;;;;;;;9.10;72.04;97452.16;5065159;28;20335;-65
2022/09/17 05:19:09;;;;;;;;;;;;;;;9.13;72.12;97457.75;5064721;28;19938;-68
2022/09/17 05:21:38;;;;;;;;;;;;;;;9.15;71.88;97460.16;5067331;28;19924;-69
2022/09/17 05:24:06;;;;;;;;;;;;;;;9.12;71.95;97458.88;5068383;28;20045;-68
2022/09/17 05:26:34;;;;;;;;;;;;;;;9.17;71.60;97457.94;5063610;28;20432;-64
2022/09/17 05:31:54;;;;;;;;;;;;;;;9.16;71.50;97461.75;5064238;28;20426;-69
2022/09/17 05:34:25;;;;;;;;;;;;;;;9.22;71.30;97454.31;5050123;28;19970;-68
2022/09/17 05:37:00;;;;;;;;;;;;;;;9.18;71.97;97448.69;5049938;28;20415;-67
2022/09/17 05:39:46;;;;;;;;;;;;;;;9.11;73.28;97451.06;5045976;28;20361;-66
2022/09/17 05:42:14;;;;;;;;;;;;;;;9.06;74.60;97456.63;5050399;28;20392;-68
2022/09/17 05:45:02;;;;;;;;;;;;;;;9.01;75.25;97462.97;5053290;28;19966;-69
2022/09/17 05:47:54;;;;;;;;;;;;;;;9.00;76.29;97461.38;5053962;28;19929;-68
2022/09/17 05:50:44;;;;;;;;;;;;;;;8.91;76.00;97476.78;5062293;28;20289;-68
2022/09/17 05:53:33;;;;;;;;;;;;;;;8.92;76.45;97470.25;5066092;28;19939;-68
2022/09/17 05:56:45;;;;;;;;;;;;;;;8.82;76.61;97478.66;5069694;28;19928;-67
2022/09/17 05:59:33;;;;;;;;;;;;;;;8.84;76.51;97487.25;5070242;28;21354;-69
2022/09/17 06:05:58;;;;;;;;;;;;;;;8.71;76.70;97486.22;5064218;28;19928;-68
2022/09/17 06:08:49;;;;;;;;;;;;;;;8.60;77.29;97482.97;5067846;28;20381;-68
2022/09/17 06:11:37;;;;;;;;;;;;;;;8.58;78.12;97481.69;5068070;28;19935;-65
2022/09/17 06:14:25;;;;;;;;;;;;;;;8.59;78.55;97483.28;5054183;28;19989;-67
2022/09/17 06:17:11;;;;;;;;;;;;;;;8.56;78.16;97479.28;5063817;28;19990;-64
2022/09/17 06:20:00;;;;;;;;;;;;;;;8.55;78.50;97482.31;5058306;28;19974;-65
2022/09/17 06:22:48;;;;;;;;;;;;;;;8.53;78.34;97482.63;5062049;28;20022;-65
2022/09/17 06:25:37;;;;;;;;;;;;;;;8.60;78.75;97484.88;5043330;28;19960;-66
2022/09/17 06:28:25;;;;;;;;;;;;;;;8.57;79.19;97483.56;5060382;28;19925;-66
2022/09/17 06:31:14;;;;;;;;;;;;;;;8.59;79.22;97488.72;5061442;28;19928;-65
2022/09/17 06:34:04;;;;;;;;;;;;;;;8.60;78.48;97487.59;5061137;28;20553;-68
2022/09/17 06:36:52;;;;;;;;;;;;;;;8.59;78.63;97494.91;5058882;28;19928;-68
2022/09/17 06:39:40;;;;;;;;;;;;;;;8.62;78.01;97490.78;5051095;28;19928;-65
2022/09/17 06:42:29;;;;;;;;;;;;;;;8.57;78.32;97497.13;5063425;28;20615;-64
2022/09/17 06:45:18;;;;;;;;;;;;;;;8.59;78.81;97497.63;5060174;28;19947;-66
2022/09/17 06:48:06;;;;;;;;;;;;;;;8.60;78.81;97493.00;5064781;28;19961;-68
2022/09/17 06:51:19;;;;;;;;;;;;;;;8.59;79.37;97497.63;5059337;28;19932;-65
2022/09/17 06:54:08;;;;;;;;;;;;;;;8.60;79.81;97503.84;5049162;28;19935;-66
2022/09/17 06:56:56;;;;;;;;;;;;;;;8.53;79.79;97504.28;5058622;28;19924;-66
2022/09/17 06:59:46;;;;;;;;;;;;;;;8.51;80.39;97505.69;5061557;28;19924;-67
2022/09/17 07:02:35;;;;;;;;;;;;;;;8.50;80.79;97506.78;5052195;28;19933;-67
2022/09/17 07:05:24;;;;;;;;;;;;;;;8.52;81.28;97521.63;5056452;28;19964;-64
2022/09/17 07:08:12;;;;;;;;;;;;;;;8.54;81.02;97514.00;5046937;28;19985;-63
2022/09/17 07:11:01;;;;;;;;;;;;;;;8.52;81.34;97518.09;5058277;28;20057;-63
2022/09/17 07:13:51;;;;;;;;;;;;;;;8.56;81.86;97524.50;5061548;28;20557;-66
2022/09/17 07:16:41;;;;;;;;;;;;;;;8.52;82.09;97527.06;5044302;28;19932;-66
2022/09/17 07:19:29;;;;;;;;;;;;;;;8.56;82.14;97527.22;5062428;28;19956;-65
2022/09/17 07:22:18;;;;;;;;;;;;;;;8.61;81.93;97519.78;5059078;28;19951;-67
2022/09/17 07:25:06;;;;;;;;;;;;;;;8.59;82.25;97523.91;5062037;28;20212;-68
2022/09/17 07:27:55;;;;;;;;;;;;;;;8.62;81.96;97531.41;5055790;28;19932;-61
2022/09/17 07:30:43;;;;;;;;;;;;;;;8.56;82.85;97530.72;5060432;28;19929;-63
2022/09/17 07:33:34;;;;;;;;;;;;;;;8.60;82.70;97545.25;5061544;28;19973;-65
2022/09/17 07:36:22;;;;;;;;;;;;;;;8.62;82.77;97543.03;5045162;28;20512;-67
2022/09/17 07:39:12;;;;;;;;;;;;;;;8.63;82.14;97547.34;5057910;28;19924;-65
2022/09/17 07:42:00;;;;;;;;;;;;;;;8.62;83.17;97551.16;5055354;28;19966;-65
2022/09/17 07:44:48;;;;;;;;;;;;;;;8.59;82.94;97545.56;5062312;28;19929;-66
2022/09/17 07:47:40;;;;;;;;;;;;;;;8.62;83.00;97553.06;5060146;28;20458;-68
2022/09/17 07:50:53;;;;;;;;;;;;;;;8.65;83.21;97566.00;5059702;28;20277;-67
2022/09/17 07:53:45;;;;;;;;;;;;;;;8.59;82.81;97567.22;5045411;28;19931;-66
2022/09/17 07:56:34;;;;;;;;;;;;;;;8.65;83.21;97566.78;5062332;28;20329;-62
2022/09/17 07:59:22;;;;;;;;;;;;;;;8.69;83.50;97571.63;5060729;28;19936;-66
2022/09/17 08:02:12;;;;;;;;;;;;;;;8.72;82.60;97571.78;5058855;28;20425;-64
2022/09/17 08:05:00;;;;;;;;;;;;;;;8.73;82.56;97573.38;5056924;28;20011;-67
2022/09/17 08:07:49;;;;;;;;;;;;;;;8.72;82.33;97579.09;5044994;28;20054;-65
2022/09/17 08:10:39;;;;;;;;;;;;;;;8.79;83.12;97582.19;5059140;28;20066;-66
2022/09/17 08:13:27;;;;;;;;;;;;;;;8.78;82.41;97588.72;5046445;28;20023;-67
2022/09/17 08:16:15;;;;;;;;;;;;;;;8.80;82.47;97587.31;5056513;28;19928;-67
2022/09/17 08:19:04;;;;;;;;;;;;;;;8.84;81.32;97585.59;5060072;28;19932;-66
2022/09/17 08:21:54;;;;;;;;;;;;;;;8.86;82.28;97588.78;5058758;28;19932;-64
2022/09/17 08:24:43;;;;;;;;;;;;;;;8.89;81.74;97588.19;5054103;28;19928;-61
2022/09/17 08:27:33;;;;;;;;;;;;;;;8.91;81.69;97588.66;5062555;28;19997;-65
2022/09/17 08:30:21;;;;;;;;;;;;;;;8.92;81.81;97592.16;5058094;28;19928;-66
2022/09/17 08:33:10;;;;;;;;;;;;;;;8.95;82.12;97590.75;5060108;28;20082;-66
2022/09/17 08:35:58;;;;;;;;;;;;;;;8.99;81.93;97597.94;5059213;28;19932;-68
2022/09/17 08:38:47;;;;;;;;;;;;;;;8.99;81.55;97594.44;5057788;28;19933;-62
2022/09/17 08:41:40;;;;;;;;;;;;;;;9.02;81.05;97597.34;5044032;28;20484;-69
2022/09/17 08:44:32;;;;;;;;;;;;;;;9.02;80.91;97602.75;5060368;28;19929;-66
2022/09/17 08:47:23;;;;;;;;;;;;;;;9.08;80.80;97606.16;5056548;28;19978;-63
2022/09/17 08:50:14;;;;;;;;;;;;;;;9.09;80.90;97605.03;5059730;28;20109;-69
2022/09/17 08:53:09;;;;;;;;;;;;;;;9.05;80.37;97601.31;5043157;28;19928;-65
2022/09/17 08:55:58;;;;;;;;;;;;;;;9.10;79.91;97609.34;5055636;28;19931;-67
2022/09/17 08:58:56;;;;;;;;;;;;;;;9.12;79.63;97607.94;5055889;28;20514;-60
2022/09/17 09:01:48;;;;;;;;;;;;;;;9.18;79.75;97616.75;5055480;28;19928;-66
2022/09/17 09:05:03;;;;;;;;;;;;;;;9.33;78.40;97618.28;5059075;28;19935;-65
2022/09/17 09:07:52;;;;;;;;;;;;;;;9.36;78.55;97617.63;5056983;28;19928;-66
2022/09/17 09:10:43;;;;;;;;;;;;;;;9.46;78.37;97617.38;5058698;28;19924;-70
2022/09/17 09:13:36;;;;;;;;;;;;;;;9.64;77.87;97624.50;5061653;28;20007;-66
2022/09/17 09:16:24;;;;;;;;;;;;;;;9.72;76.89;97620.22;5058015;28;20380;-67
2022/09/17 09:19:17;;;;;;;;;;;;;;;9.83;76.23;97626.16;5059478;28;19937;-59
2022/09/17 09:25:22;;;;;;;;;;;;;;;9.97;75.09;97627.66;5061192;28;19924;-66
2022/09/17 09:28:47;;;;;;;;;;;;;;;9.93;74.39;97621.25;5064450;28;19932;-65
2022/09/17 09:31:42;;;;;;;;;;;;;;;9.90;74.71;97619.16;5060438;28;20541;-66
2022/09/17 09:34:34;;;;;;;;;;;;;;;9.92;74.74;97622.38;5063572;28;20691;-64
2022/09/17 09:37:23;;;;;;;;;;;;;;;10.04;74.11;97620.97;5059480;28;19928;-66
2022/09/17 09:40:19;;;;;;;;;;;;;;;10.11;74.28;97610.44;5065034;28;19931;-67
2022/09/17 09:43:12;;;;;;;;;;;;;;;10.18;73.94;97611.59;5063840;28;20292;-66
2022/09/17 09:46:10;;;;;;;;;;;;;;;10.17;73.53;97614.63;5065590;28;20541;-69
2022/09/17 09:49:02;;;;;;;;;;;;;;;10.17;73.66;97609.19;5049277;28;19937;-63
2022/09/17 09:51:54;;;;;;;;;;;;;;;10.21;73.19;97621.03;5048206;28;19932;-67
2022/09/17 09:54:45;;;;;;;;;;;;;;;10.30;73.32;97624.59;5062368;28;20036;-62
2022/09/17 09:57:35;;;;;;;;;;;;;;;10.40;73.09;97627.00;5065281;28;19928;-66
2022/09/17 10:00:48;;;;;;;;;;;;;;;10.36;72.47;97631.47;5062586;28;20360;-66
2022/09/17 10:03:36;;;;;;;;;;;;;;;10.37;72.89;97616.78;5064245;28;20113;-63
2022/09/17 10:06:25;;;;;;;;;;;;;;;10.43;72.68;97618.22;5063193;28;19924;-66
2022/09/17 10:12:28;;;;;;;;;;;;;;;10.74;71.76;97625.44;5054490;28;19979;-66
2022/09/17 10:15:24;;;;;;;;;;;;;;;10.78;71.50;97618.25;5057221;28;19925;-67
2022/09/17 10:18:15;;;;;;;;;;;;;;;10.80;70.85;97620.66;5056259;28;19929;-60
2022/09/17 10:21:04;;;;;;;;;;;;;;;10.85;69.83;97612.34;5054366;28;19932;-65
2022/09/17 10:23:52;;;;;;;;;;;;;;;10.85;69.47;97617.78;5049994;28;19924;-61
2022/09/17 10:26:42;;;;;;;;;;;;;;;11.02;69.68;97610.44;5054901;28;19973;-69
2022/09/17 10:29:32;;;;;;;;;;;;;;;11.09;67.87;97611.84;5041569;28;19925;-67
2022/09/17 10:32:21;;;;;;;;;;;;;;;11.07;68.02;97624.97;5043161;28;19931;-66
2022/09/17 10:35:24;;;;;;;;;;;;;;;11.04;68.47;97610.09;5043147;28;19925;-68
2022/09/17 10:38:26;;;;;;;;;;;;;;;11.36;68.58;97614.22;5053461;28;19959;-66
2022/09/17 10:41:18;;;;;;;;;;;;;;;11.66;65.33;97608.84;5045203;28;19929;-68
2022/09/17 10:44:16;;;;;;;;;;;;;;;11.64;64.76;97595.56;5043295;28;20335;-67
2022/09/17 10:50:18;;;;;;;;;;;;;;;11.62;64.17;97597.03;5053288;28;19979;-65
2022/09/17 10:53:07;;;;;;;;;;;;;;;11.67;65.00;97592.19;5040639;28;20022;-67
2022/09/17 10:59:28;;;;;;;;;;;;;;;11.53;63.65;97606.00;5039797;28;19933;-65
2022/09/17 11:02:25;;;;;;;;;;;;;;;11.70;63.37;97599.69;5041478;28;19984;-68
2022/09/17 11:05:20;;;;;;;;;;;;;;;12.01;63.78;97599.44;5053421;28;20049;-66
2022/09/17 11:08:11;;;;;;;;;;;;;;;12.16;63.05;97594.56;5040496;28;19924;-65
2022/09/17 11:11:26;;;;;;;;;;;;;;;12.06;63.09;97601.97;5060332;28;19989;-61
2022/09/17 11:14:17;;;;;;;;;;;;;;;11.79;62.78;97591.50;5060465;28;19929;-63
2022/09/17 11:17:11;;;;;;;;;;;;;;;11.89;63.81;97585.72;5060924;28;19950;-68
2022/09/17 11:20:04;;;;;;;;;;;;;;;11.85;64.49;97573.91;5063346;28;19929;-70
2022/09/17 11:22:55;;;;;;;;;;;;;;;11.93;64.39;97578.50;5061449;28;20000;-65
2022/09/17 11:25:45;;;;;;;;;;;;;;;12.06;61.41;97579.41;5060953;28;19935;-63
2022/09/17 11:28:37;;;;;;;;;;;;;;;12.20;62.23;97562.81;5060191;28;19928;-67
2022/09/17 11:31:30;;;;;;;;;;;;;;;12.45;61.35;97570.00;5059980;28;19935;-65
2022/09/17 11:34:22;;;;;;;;;;;;;;;12.57;59.69;97567.38;5062556;28;19984;-63
2022/09/17 11:37:12;;;;;;;;;;;;;;;12.72;60.12;97567.88;5058811;28;19933;-69
2022/09/17 11:40:00;;;;;;;;;;;;;;;12.72;59.36;97571.41;5062727;28;19924;-66
2022/09/17 11:42:49;;;;;;;;;;;;;;;12.74;58.39;97576.53;5060819;28;19959;-67
2022/09/17 11:45:38;;;;;;;;;;;;;;;12.70;57.81;97570.94;5045121;28;20183;-66
2022/09/17 11:48:31;;;;;;;;;;;;;;;12.79;58.28;97551.81;5060678;28;19928;-66
2022/09/17 11:51:22;;;;;;;;;;;;;;;12.83;57.20;97552.72;5061700;28;20162;-66
2022/09/17 11:54:15;;;;;;;;;;;;;;;12.77;57.03;97554.84;5054628;28;20360;-68
2022/09/17 11:57:06;;;;;;;;;;;;;;;12.76;56.40;97557.91;5055265;28;19924;-69
2022/09/17 11:59:59;;;;;;;;;;;;;;;12.73;57.70;97558.56;5059959;28;19932;-66
2022/09/17 12:06:34;;;;;;;;;;;;;;;12.62;58.32;97551.94;5051727;28;19971;-65
2022/09/17 12:09:25;;;;;;;;;;;;;;;12.75;58.33;97548.94;5058155;28;20609;-66
2022/09/17 12:12:14;;;;;;;;;;;;;;;12.71;58.29;97563.56;5057531;28;20625;-59
2022/09/17 12:15:22;;;;;;;;;;;;;;;12.09;64.02;97575.19;5062681;28;19936;-66
2022/09/17 12:18:16;;;;;;;;;;;;;;;11.78;67.03;97573.59;5056369;28;20033;-67
2022/09/17 12:21:27;;;;;;;;;;;;;;;11.59;67.38;97565.00;5059784;28;20034;-65
2022/09/17 12:24:19;;;;;;;;;;;;;;;11.48;67.72;97559.13;5045326;28;19972;-65
2022/09/17 12:27:15;;;;;;;;;;;;;;;11.22;69.27;97554.56;5057904;28;19925;-66
2022/09/17 12:30:05;;;;;;;;;;;;;;;11.16;71.67;97555.84;5059490;28;19935;-66
2022/09/17 12:33:23;;;;;;;;;;;;;;;11.35;72.09;97544.63;5058536;28;19929;-67
2022/09/17 12:36:21;;;;;;;;;;;;;;;11.44;71.76;97542.66;5045680;28;20384;-66
2022/09/17 12:39:16;;;;;;;;;;;;;;;11.45;70.12;97548.88;5060240;28;19935;-67
2022/09/17 12:42:08;;;;;;;;;;;;;;;11.38;70.26;97540.44;5059129;28;20002;-67
2022/09/17 12:45:20;;;;;;;;;;;;;;;11.42;70.65;97547.63;5059506;28;19935;-67
2022/09/17 12:48:19;;;;;;;;;;;;;;;11.53;69.94;97537.19;5038901;28;20023;-69
2022/09/17 12:51:14;;;;;;;;;;;;;;;11.51;69.92;97528.56;5060964;28;19924;-66
2022/09/17 12:54:04;;;;;;;;;;;;;;;11.53;69.90;97532.53;5057321;28;19969;-66
2022/09/17 12:56:58;;;;;;;;;;;;;;;11.50;68.08;97527.78;5046893;28;20425;-68
2022/09/17 12:59:49;;;;;;;;;;;;;;;11.57;69.23;97527.25;5057670;28;20344;-67
2022/09/17 13:03:02;;;;;;;;;;;;;;;11.63;68.62;97519.72;5059878;28;19924;-66
2022/09/17 13:06:07;;;;;;;;;;;;;;;11.70;68.67;97517.25;5043883;28;19986;-61
2022/09/17 13:09:14;;;;;;;;;;;;;;;11.86;68.75;97523.78;5054142;28;19972;-65
2022/09/17 13:12:06;;;;;;;;;;;;;;;11.95;67.41;97519.09;5059491;28;20392;-61
2022/09/17 13:15:00;;;;;;;;;;;;;;;11.93;66.04;97525.97;5059689;28;19929;-65
2022/09/17 13:17:51;;;;;;;;;;;;;;;11.99;65.24;97522.75;5060189;28;19932;-66
2022/09/17 13:21:01;;;;;;;;;;;;;;;11.96;62.77;97525.31;5060079;28;19973;-65
2022/09/17 13:23:54;;;;;;;;;;;;;;;11.99;61.87;97514.56;5045068;28;19928;-66
2022/09/17 13:26:44;;;;;;;;;;;;;;;11.96;61.51;97512.50;5061342;28;19928;-66
2022/09/17 13:29:51;;;;;;;;;;;;;;;11.95;61.67;97519.09;5043151;28;19935;-64
2022/09/17 13:32:46;;;;;;;;;;;;;;;11.89;63.48;97553.06;5062175;28;19943;-65
2022/09/17 13:35:50;;;;;;;;;;;;;;;10.76;68.31;97587.91;5054570;28;19947;-65
2022/09/17 13:38:40;;;;;;;;;;;;;;;9.90;71.71;97597.44;5061196;28;19933;-65
2022/09/17 13:41:34;;;;;;;;;;;;;;;9.40;73.22;97584.16;5057332;28;20292;-65
2022/09/17 13:44:22;;;;;;;;;;;;;;;9.24;75.32;97572.13;5061886;28;19928;-66
2022/09/17 13:47:23;;;;;;;;;;;;;;;9.23;76.79;97572.44;5060976;28;20589;-59
2022/09/17 13:50:25;;;;;;;;;;;;;;;9.15;76.72;97584.81;5060050;28;20611;-64
2022/09/17 13:53:40;;;;;;;;;;;;;;;9.06;77.69;97565.03;5060426;28;19962;-64
2022/09/17 13:59:53;;;;;;;;;;;;;;;9.25;78.17;97546.63;5040376;28;19971;-66
2022/09/17 14:03:06;;;;;;;;;;;;;;;9.33;76.15;97553.22;5044776;28;19939;-64
2022/09/17 14:06:39;;;;;;;;;;;;;;;9.29;75.86;97534.03;5060530;28;20426;-65
2022/09/17 14:09:31;;;;;;;;;;;;;;;9.32;76.34;97538.84;5058409;28;19925;-66
2022/09/17 14:12:46;;;;;;;;;;;;;;;9.36;77.04;97539.00;5060762;28;19928;-65
2022/09/17 14:15:38;;;;;;;;;;;;;;;9.50;77.14;97542.44;5062821;28;19929;-63
2022/09/17 14:18:38;;;;;;;;;;;;;;;9.79;76.11;97544.59;5062170;28;19932;-67
2022/09/17 14:21:27;;;;;;;;;;;;;;;9.92;74.97;97534.75;5063882;28;19971;-65
2022/09/17 14:24:19;;;;;;;;;;;;;;;10.13;74.46;97534.94;5063302;28;19947;-65
2022/09/17 14:27:12;;;;;;;;;;;;;;;10.29;73.02;97529.88;5061631;28;19947;-65
2022/09/17 14:30:05;;;;;;;;;;;;;;;10.49;72.24;97538.22;5063059;28;19925;-66
2022/09/17 14:33:20;;;;;;;;;;;;;;;10.63;71.88;97534.50;5061740;28;19924;-65
2022/09/17 14:36:09;;;;;;;;;;;;;;;10.81;71.65;97533.38;5059087;28;19932;-66
2022/09/17 14:38:57;;;;;;;;;;;;;;;10.93;71.93;97527.28;5046166;28;19928;-63
2022/09/17 14:41:45;;;;;;;;;;;;;;;11.06;70.69;97525.50;5062398;28;19924;-64
2022/09/17 14:44:33;;;;;;;;;;;;;;;11.21;71.68;97524.97;5063010;28;19929;-67
2022/09/17 14:47:22;;;;;;;;;;;;;;;11.27;68.42;97532.63;5061384;28;19932;-65
2022/09/17 14:53:36;;;;;;;;;;;;;;;11.51;70.24;97525.84;5062966;28;20029;-65
2022/09/17 14:56:25;;;;;;;;;;;;;;;11.61;68.56;97525.47;5063668;28;20553;-66
2022/09/17 14:59:15;;;;;;;;;;;;;;;11.70;68.83;97528.16;5060401;28;19928;-63
2022/09/17 15:02:03;;;;;;;;;;;;;;;11.86;69.68;97531.13;5047930;28;19933;-66
2022/09/17 15:04:52;;;;;;;;;;;;;;;11.85;67.68;97524.91;5062315;28;19924;-66
2022/09/17 15:07:42;;;;;;;;;;;;;;;11.87;66.34;97521.84;5063117;28;20341;-67
2022/09/17 15:10:32;;;;;;;;;;;;;;;11.94;66.84;97511.25;5059386;28;19935;-65
2022/09/17 15:13:21;;;;;;;;;;;;;;;12.04;66.92;97517.09;5059571;28;19925;-68
2022/09/17 15:16:13;;;;;;;;;;;;;;;12.02;66.91;97515.81;5061477;28;20266;-69
2022/09/17 15:19:02;;;;;;;;;;;;;;;12.07;66.93;97519.16;5061137;28;19932;-66